Astur — CURM5 — position and weather

sailwx.info

Track history (hours):
 
Tides and Currents Weather Stations Pressure Air Temp Water Temp Dewpoint Dewpoint Depression Visibility Wind Speed Wind Dir Waves Ship Positions

Astur

Last reported at 2017-Oct-17 01:00 UTC. Time now 2017-Oct-17 01:20 UTC.
Position N 37°08' W 008°32'.

Length 21 m.

Type: Ship. MMSI: 263275000.

Date/timePositionNaut miles runAvg speedWind from/ knotsBaromVisibWave heightAir tempDewpointWater temp
2017-Oct-17 01:00N 37°08' W 008°32'0 0.0
2017-Oct-17 00:31N 37°08' W 008°32'0 0.0
2017-Oct-17 00:00N 37°08' W 008°32'0 0.0
2017-Oct-16 23:30N 37°08' W 008°32'0 0.0
2017-Oct-16 23:01N 37°08' W 008°32'0 0.0
2017-Oct-16 22:30N 37°08' W 008°32'0 0.0
2017-Oct-16 22:01N 37°08' W 008°32'0 0.0
2017-Oct-16 21:30N 37°08' W 008°32'0 0.0
2017-Oct-16 21:01N 37°08' W 008°32'0 0.0
2017-Oct-16 20:30N 37°08' W 008°32'0 0.0
2017-Oct-16 20:00N 37°08' W 008°32'0 0.0
2017-Oct-16 19:31N 37°08' W 008°32'0 0.0
2017-Oct-16 19:01N 37°08' W 008°32'0 0.0
2017-Oct-16 18:30N 37°08' W 008°32'0 0.0
2017-Oct-16 18:00N 37°08' W 008°32'0 0.0
2017-Oct-16 17:30N 37°08' W 008°32'0 0.0
2017-Oct-16 17:01N 37°08' W 008°32'0 0.0
2017-Oct-16 16:30N 37°08' W 008°32'0 0.0
2017-Oct-16 16:00N 37°08' W 008°32'0 0.0
2017-Oct-16 15:31N 37°08' W 008°32'0 0.0
2017-Oct-16 15:01N 37°08' W 008°32'0 0.0
2017-Oct-16 14:30N 37°08' W 008°32'0 0.0
2017-Oct-16 13:30N 37°08' W 008°32'0 0.0
2017-Oct-16 13:01N 37°08' W 008°32'0 0.0
2017-Oct-16 12:31N 37°08' W 008°32'0 0.0
2017-Oct-16 12:00N 37°08' W 008°32'0 0.0
2017-Oct-16 11:31N 37°08' W 008°32'0 0.0
2017-Oct-16 11:00N 37°08' W 008°32'0 0.0
2017-Oct-16 10:31N 37°08' W 008°32'0 0.0
2017-Oct-16 10:00N 37°08' W 008°32'0 0.0
2017-Oct-16 09:30N 37°08' W 008°32'0 0.0
2017-Oct-16 09:00N 37°08' W 008°32'0 0.0
2017-Oct-16 08:30N 37°08' W 008°32'0 0.0
2017-Oct-16 08:00N 37°08' W 008°32'0 0.0
2017-Oct-16 07:30N 37°08' W 008°32'0 0.0
2017-Oct-16 07:00N 37°08' W 008°32'0 0.0
2017-Oct-16 06:30N 37°08' W 008°32'0 0.0
2017-Oct-16 06:00N 37°08' W 008°32'0 0.0
2017-Oct-16 05:31N 37°08' W 008°32'0 0.0
2017-Oct-16 05:00N 37°08' W 008°32'2 3.7
2017-Oct-16 04:31N 37°06' W 008°32'4 7.9
2017-Oct-16 04:00N 37°04' W 008°36'4 7.6
2017-Oct-16 03:29N 37°00' W 008°39'6 0.5
2017-Oct-15 15:52N 37°01' W 008°32'6 7.9
2017-Oct-15 15:07N 37°07' W 008°32'1 6.4
2017-Oct-15 15:00N 37°08' W 008°32'0 0.0
2017-Oct-15 14:00N 37°08' W 008°32'0 0.0
2017-Oct-15 13:28N 37°08' W 008°32'0 0.0
2017-Oct-15 13:00N 37°08' W 008°32'0 0.0
2017-Oct-15 12:30N 37°08' W 008°32'0 0.0
2017-Oct-15 12:00N 37°08' W 008°32'0 0.0
2017-Oct-15 11:30N 37°08' W 008°32'0 0.0
2017-Oct-15 11:00N 37°08' W 008°32'1 2.0
2017-Oct-15 10:29N 37°07' W 008°32'1 2.1
2017-Oct-15 10:00N 37°08' W 008°32'0 0.0
2017-Oct-15 09:29N 37°08' W 008°32'0 0.0
2017-Oct-15 08:59N 37°08' W 008°32'0 0.0
2017-Oct-15 08:28N 37°08' W 008°32'0 0.0
2017-Oct-15 08:00N 37°08' W 008°32'0 0.0
2017-Oct-15 07:29N 37°08' W 008°32'0 0.0
2017-Oct-15 07:00N 37°08' W 008°32'0 0.0
2017-Oct-15 06:29N 37°08' W 008°32'0 0.0
2017-Oct-15 06:00N 37°08' W 008°32'0 0.0
2017-Oct-15 05:29N 37°08' W 008°32'0 0.0
2017-Oct-15 04:59N 37°08' W 008°32'0 0.0
2017-Oct-15 04:30N 37°08' W 008°32'0 0.0
2017-Oct-15 04:00N 37°08' W 008°32'0 0.0
2017-Oct-15 03:28N 37°08' W 008°32'0 0.0
2017-Oct-15 02:56N 37°08' W 008°32'0 0.0
2017-Oct-15 02:30N 37°08' W 008°32'0 0.0
2017-Oct-15 01:59N 37°08' W 008°32'0 0.0
2017-Oct-15 01:30N 37°08' W 008°32'2 3.6
2017-Oct-15 01:00N 37°06' W 008°32'1 1.3
2017-Oct-15 00:30N 37°07' W 008°32'1 2.3
2017-Oct-15 00:00N 37°08' W 008°32'0 0.0
2017-Oct-14 23:27N 37°08' W 008°32'0 0.0
2017-Oct-14 23:00N 37°08' W 008°32'0 0.0
2017-Oct-14 22:29N 37°08' W 008°32'0 0.0
2017-Oct-14 21:59N 37°08' W 008°32'0 0.0
2017-Oct-14 21:27N 37°08' W 008°32'0 0.0
2017-Oct-14 20:54N 37°08' W 008°32'0 0.0
2017-Oct-14 20:30N 37°08' W 008°32'0 0.0
2017-Oct-14 18:59N 37°08' W 008°32'0 0.0
2017-Oct-14 18:28N 37°08' W 008°32'0 0.0
2017-Oct-14 18:01N 37°08' W 008°32'0 0.0
2017-Oct-14 17:17N 37°08' W 008°32'0 0.0
2017-Oct-14 16:52N 37°08' W 008°32'0 0.0
2017-Oct-14 16:29N 37°08' W 008°32'0 0.0
2017-Oct-14 15:49N 37°08' W 008°32'0 0.0
2017-Oct-14 15:29N 37°08' W 008°32'0 0.0
2017-Oct-14 14:47N 37°08' W 008°32'0 0.0
2017-Oct-14 14:24N 37°08' W 008°32'0 0.0
2017-Oct-14 13:59N 37°08' W 008°32'0 0.0
2017-Oct-14 12:53N 37°08' W 008°32'0 0.0
2017-Oct-14 12:28N 37°08' W 008°32'0 0.0
2017-Oct-14 11:45N 37°08' W 008°32'0 0.0
2017-Oct-14 11:18N 37°08' W 008°32'0 0.0
2017-Oct-14 10:33N 37°08' W 008°32'0 0.0
2017-Oct-14 10:31N 37°08' W 008°32'0 0.0
2017-Oct-14 09:58N 37°08' W 008°32'0 0.0
2017-Oct-14 09:13N 37°08' W 008°32'0 0.0
2017-Oct-14 08:44N 37°08' W 008°32'0 0.0
2017-Oct-14 08:24N 37°08' W 008°32'0 0.0
2017-Oct-14 08:00N 37°08' W 008°32'0 0.0
2017-Oct-14 07:29N 37°08' W 008°32'0 0.0
2017-Oct-14 06:50N 37°08' W 008°32'0 0.0
2017-Oct-14 06:30N 37°08' W 008°32'0 0.0
2017-Oct-14 06:00N 37°08' W 008°32'0 0.0
2017-Oct-14 05:18N 37°08' W 008°32'0 0.0
2017-Oct-14 04:57N 37°08' W 008°32'0 0.0
2017-Oct-14 04:27N 37°08' W 008°32'0 0.0
2017-Oct-14 03:38N 37°08' W 008°32'0 0.0
2017-Oct-14 03:31N 37°08' W 008°32'0 0.0
2017-Oct-14 02:59N 37°08' W 008°32'0 0.0
2017-Oct-14 02:30N 37°08' W 008°32'0 0.0
2017-Oct-14 01:59N 37°08' W 008°32'0 0.0
2017-Oct-14 01:26N 37°08' W 008°32'0 0.0
2017-Oct-14 01:00N 37°08' W 008°32'0 0.0
2017-Oct-14 00:30N 37°08' W 008°32'0 0.0
2017-Oct-14 00:00N 37°08' W 008°32'0 0.0
2017-Oct-13 23:30N 37°08' W 008°32'0 0.0
2017-Oct-13 22:58N 37°08' W 008°32'0 0.0
2017-Oct-13 22:29N 37°08' W 008°32'0 0.0
2017-Oct-13 22:00N 37°08' W 008°32'0 0.0
2017-Oct-13 21:30N 37°08' W 008°32'0 0.0
2017-Oct-13 21:00N 37°08' W 008°32'0 0.0
2017-Oct-13 20:30N 37°08' W 008°32'0 0.0
2017-Oct-13 20:01N 37°08' W 008°32'0 0.0
2017-Oct-13 19:31N 37°08' W 008°32'0 0.0
2017-Oct-13 19:01N 37°08' W 008°32'0 0.0
2017-Oct-13 18:30N 37°08' W 008°32'0 0.0
2017-Oct-13 18:00N 37°08' W 008°32'0 0.0
2017-Oct-13 17:30N 37°08' W 008°32'0 0.0
2017-Oct-13 17:00N 37°08' W 008°32'0 0.0
2017-Oct-13 16:30N 37°08' W 008°32'0 0.0
2017-Oct-13 15:59N 37°08' W 008°32'0 0.0
2017-Oct-13 15:30N 37°08' W 008°32'0 0.0
2017-Oct-13 14:59N 37°08' W 008°32'0 0.0
2017-Oct-13 14:30N 37°08' W 008°32'0 0.0
2017-Oct-13 14:01N 37°08' W 008°32'0 0.0
2017-Oct-13 13:30N 37°08' W 008°32'0 0.0
2017-Oct-13 13:00N 37°08' W 008°32'0 0.0
2017-Oct-13 12:30N 37°08' W 008°32'0 0.0
2017-Oct-13 12:00N 37°08' W 008°32'0 0.0
2017-Oct-13 11:31N 37°08' W 008°32'0 0.0
2017-Oct-13 11:00N 37°08' W 008°32'0 0.1
2017-Oct-13 10:30N 37°08' W 008°32'0 0.1
2017-Oct-13 10:00N 37°08' W 008°32'0 0.0
2017-Oct-13 09:30N 37°08' W 008°32'0 0.0
2017-Oct-13 09:00N 37°08' W 008°32'0 0.0
2017-Oct-13 08:30N 37°08' W 008°32'0 0.0
2017-Oct-13 08:00N 37°08' W 008°32'0 0.0
2017-Oct-13 07:30N 37°08' W 008°32'0 0.0
2017-Oct-13 07:00N 37°08' W 008°32'0 0.0
2017-Oct-13 06:30N 37°08' W 008°32'0 0.0
2017-Oct-13 06:00N 37°08' W 008°32'0 0.0
2017-Oct-13 05:30N 37°08' W 008°32'0 0.0
2017-Oct-13 04:56N 37°08' W 008°32'0 0.0
2017-Oct-13 04:29N 37°08' W 008°32'0 0.0
2017-Oct-13 03:59N 37°08' W 008°32'0 0.0
2017-Oct-13 03:25N 37°08' W 008°32'0 0.0
2017-Oct-13 02:55N 37°08' W 008°32'0 0.0
2017-Oct-13 02:17N 37°08' W 008°32'0 0.0
2017-Oct-13 01:49N 37°08' W 008°32'0 0.0
2017-Oct-13 01:30N 37°08' W 008°32'0 0.0
2017-Oct-13 01:00N 37°08' W 008°32'0 0.0
2017-Oct-13 00:27N 37°08' W 008°32'0 0.0
2017-Oct-12 23:42N 37°08' W 008°32'0 0.0
2017-Oct-12 23:27N 37°08' W 008°32'0 0.0
2017-Oct-12 22:53N 37°08' W 008°32'0 0.0
2017-Oct-12 22:27N 37°08' W 008°32'0 0.0
2017-Oct-12 22:00N 37°08' W 008°32'0 0.0
2017-Oct-12 21:30N 37°08' W 008°32'0 0.0
2017-Oct-12 21:00N 37°08' W 008°32'0 0.0
2017-Oct-12 20:31N 37°08' W 008°32'0 0.0
2017-Oct-12 20:00N 37°08' W 008°32'0 0.0
2017-Oct-12 19:30N 37°08' W 008°32'0 0.0
2017-Oct-12 19:00N 37°08' W 008°32'0 0.0
2017-Oct-12 18:30N 37°08' W 008°32'0 0.0
2017-Oct-12 18:00N 37°08' W 008°32'0 0.0
2017-Oct-12 17:30N 37°08' W 008°32'0 0.0
2017-Oct-12 17:00N 37°08' W 008°32'0 0.0
2017-Oct-12 16:30N 37°08' W 008°32'0 0.0
2017-Oct-12 16:00N 37°08' W 008°32'0 0.0
2017-Oct-12 15:29N 37°08' W 008°32'0 0.0
2017-Oct-12 15:00N 37°08' W 008°32'0 0.0
2017-Oct-12 14:30N 37°08' W 008°32'0 0.0
2017-Oct-12 14:00N 37°08' W 008°32'0 0.0
2017-Oct-12 13:30N 37°08' W 008°32'0 0.0
2017-Oct-12 13:00N 37°08' W 008°32'0 0.0
2017-Oct-12 12:30N 37°08' W 008°32'0 0.0
2017-Oct-12 12:00N 37°08' W 008°32'0 0.0
2017-Oct-12 11:28N 37°08' W 008°32'0 0.0
2017-Oct-12 11:00N 37°08' W 008°32'0 0.0
2017-Oct-12 10:30N 37°08' W 008°32'0 0.0
2017-Oct-12 09:59N 37°08' W 008°32'0 0.0
2017-Oct-12 09:30N 37°08' W 008°32'0 0.0
2017-Oct-12 09:00N 37°08' W 008°32'0 0.0
2017-Oct-12 08:30N 37°08' W 008°32'0 0.0
2017-Oct-12 08:00N 37°08' W 008°32'0 0.0
2017-Oct-12 07:30N 37°08' W 008°32'0 0.0
2017-Oct-12 06:58N 37°08' W 008°32'0 0.0
2017-Oct-12 06:30N 37°08' W 008°32'0 0.0
2017-Oct-12 06:00N 37°08' W 008°32'0 0.0
2017-Oct-12 05:29N 37°08' W 008°32'0 0.0
2017-Oct-12 05:00N 37°08' W 008°32'0 0.0
2017-Oct-12 04:30N 37°08' W 008°32'0 0.0
2017-Oct-12 03:59N 37°08' W 008°32'0 0.0
2017-Oct-12 03:30N 37°08' W 008°32'0 0.0
2017-Oct-12 03:00N 37°08' W 008°32'0 0.0
2017-Oct-12 02:31N 37°08' W 008°32'0 0.0
2017-Oct-12 02:00N 37°08' W 008°32'0 0.0
2017-Oct-12 01:30N 37°08' W 008°32'0 0.0
2017-Oct-12 00:43N 37°08' W 008°32'0 0.0
2017-Oct-12 00:29N 37°08' W 008°32'0 0.0
2017-Oct-12 00:01N 37°08' W 008°32'0 0.0
2017-Oct-11 23:29N 37°08' W 008°32'0 0.0
2017-Oct-11 22:59N 37°08' W 008°32'0 0.0
2017-Oct-11 22:30N 37°08' W 008°32'0 0.0
2017-Oct-11 21:55N 37°08' W 008°32'0 0.0
2017-Oct-11 21:30N 37°08' W 008°32'0 0.0
2017-Oct-11 20:59N 37°08' W 008°32'0 0.0
2017-Oct-11 20:30N 37°08' W 008°32'0 0.0
2017-Oct-11 19:59N 37°08' W 008°32'0 0.0
2017-Oct-11 19:30N 37°08' W 008°32'0 0.0
2017-Oct-11 19:00N 37°08' W 008°32'0 0.0
2017-Oct-11 18:24N 37°08' W 008°32'0 0.0
2017-Oct-11 17:59N 37°08' W 008°32'0 0.0
2017-Oct-11 17:18N 37°08' W 008°32'0 0.0
2017-Oct-11 16:58N 37°08' W 008°32'0 0.0
2017-Oct-11 00:00N 37°08' W 008°32'0 0.0
2017-Oct-10 23:30N 37°08' W 008°32'0 0.0
2017-Oct-10 23:00N 37°08' W 008°32'0 0.0
2017-Oct-10 22:30N 37°08' W 008°32'0 0.0
2017-Oct-10 22:00N 37°08' W 008°32'0 0.0
2017-Oct-10 21:30N 37°08' W 008°32'0 0.0
2017-Oct-10 21:00N 37°08' W 008°32'0 0.0
2017-Oct-10 20:30N 37°08' W 008°32'0 0.0
2017-Oct-10 20:00N 37°08' W 008°32'0 0.0
2017-Oct-10 19:30N 37°08' W 008°32'0 0.0
2017-Oct-10 19:00N 37°08' W 008°32'0 0.0
2017-Oct-10 18:29N 37°08' W 008°32'0 0.0
2017-Oct-10 18:00N 37°08' W 008°32'0 0.0
2017-Oct-10 17:31N 37°08' W 008°32'0 0.0
2017-Oct-10 17:00N 37°08' W 008°32'0 0.0
2017-Oct-10 16:30N 37°08' W 008°32'0 0.0
2017-Oct-10 16:00N 37°08' W 008°32'0 0.0
2017-Oct-10 15:30N 37°08' W 008°32'0 0.0
2017-Oct-10 15:00N 37°08' W 008°32'0 0.0
2017-Oct-10 14:00N 37°08' W 008°32'0 0.0
2017-Oct-10 13:30N 37°08' W 008°32'0 0.0
2017-Oct-10 13:00N 37°08' W 008°32'0 0.0
2017-Oct-10 12:30N 37°08' W 008°32'0 0.0
2017-Oct-10 12:00N 37°08' W 008°32'0 0.0
2017-Oct-10 11:28N 37°08' W 008°32'0 0.0
2017-Oct-10 11:00N 37°08' W 008°32'0 0.0
2017-Oct-10 10:30N 37°08' W 008°32'0 0.0
2017-Oct-10 10:00N 37°08' W 008°32'0 0.0
2017-Oct-10 09:30N 37°08' W 008°32'0 0.0
2017-Oct-10 09:00N 37°08' W 008°32'0 0.0
2017-Oct-10 08:30N 37°08' W 008°32'0 0.0
2017-Oct-10 08:00N 37°08' W 008°32'0 0.0
2017-Oct-10 07:30N 37°08' W 008°32'0 0.0
2017-Oct-10 07:00N 37°08' W 008°32'0 0.0
2017-Oct-10 06:30N 37°08' W 008°32'0 0.0
2017-Oct-10 06:00N 37°08' W 008°32'0 0.0
2017-Oct-10 05:29N 37°08' W 008°32'0 0.0
2017-Oct-10 04:56N 37°08' W 008°32'0 0.0
2017-Oct-10 04:30N 37°08' W 008°32'0 0.0
2017-Oct-10 04:00N 37°08' W 008°32'0 0.0
2017-Oct-10 03:27N 37°08' W 008°32'0 0.0
2017-Oct-10 03:00N 37°08' W 008°32'0 0.0
2017-Oct-10 02:30N 37°08' W 008°32'0 0.0
2017-Oct-10 02:00N 37°08' W 008°32'0 0.0
2017-Oct-10 01:29N 37°08' W 008°32'0 0.0
2017-Oct-10 01:00N 37°08' W 008°32'0 0.0
2017-Oct-10 00:30N 37°08' W 008°32'0 0.0
2017-Oct-10 00:00N 37°08' W 008°32'0 0.0
2017-Oct-09 23:30N 37°08' W 008°32'0 0.0
2017-Oct-09 23:00N 37°08' W 008°32'0 0.0
2017-Oct-09 22:30N 37°08' W 008°32'0 0.0
2017-Oct-09 21:59N 37°08' W 008°32'0 0.0
2017-Oct-09 21:30N 37°08' W 008°32'0 0.0
2017-Oct-09 21:00N 37°08' W 008°32'0 0.0
2017-Oct-09 20:30N 37°08' W 008°32'0 0.0
2017-Oct-09 20:00N 37°08' W 008°32'0 0.0
2017-Oct-09 19:30N 37°08' W 008°32'0 0.0
2017-Oct-09 19:00N 37°08' W 008°32'0 0.0
2017-Oct-09 18:30N 37°08' W 008°32'0 0.0
2017-Oct-09 18:00N 37°08' W 008°32'0 0.0
2017-Oct-09 17:30N 37°08' W 008°32'0 0.0
2017-Oct-09 17:00N 37°08' W 008°32'0 0.0
2017-Oct-09 16:30N 37°08' W 008°32'0 0.0
2017-Oct-09 16:00N 37°08' W 008°32'0 0.0
2017-Oct-09 15:30N 37°08' W 008°32'  
Track history (hours):
 
Tides and Currents Weather Stations Pressure Air Temp Water Temp Dewpoint Dewpoint Depression Visibility Wind Speed Wind Dir Waves Ship Positions

Astur

Last reported at 2017-Oct-17 01:00 UTC. Time now 2017-Oct-17 01:20 UTC.
Position N 37°08' W 008°32'.

Length 21 m.

Type: Ship. MMSI: 263275000.

Date/timePositionNaut miles runAvg speedWind from/ knotsBaromVisibWave heightAir tempDewpointWater temp
2017-Oct-17 01:00N 37°08' W 008°32'0 0.0
2017-Oct-17 00:31N 37°08' W 008°32'0 0.0
2017-Oct-17 00:00N 37°08' W 008°32'0 0.0
2017-Oct-16 23:30N 37°08' W 008°32'0 0.0
2017-Oct-16 23:01N 37°08' W 008°32'0 0.0
2017-Oct-16 22:30N 37°08' W 008°32'0 0.0
2017-Oct-16 22:01N 37°08' W 008°32'0 0.0
2017-Oct-16 21:30N 37°08' W 008°32'0 0.0
2017-Oct-16 21:01N 37°08' W 008°32'0 0.0
2017-Oct-16 20:30N 37°08' W 008°32'0 0.0
2017-Oct-16 20:00N 37°08' W 008°32'0 0.0
2017-Oct-16 19:31N 37°08' W 008°32'0 0.0
2017-Oct-16 19:01N 37°08' W 008°32'0 0.0
2017-Oct-16 18:30N 37°08' W 008°32'0 0.0
2017-Oct-16 18:00N 37°08' W 008°32'0 0.0
2017-Oct-16 17:30N 37°08' W 008°32'0 0.0
2017-Oct-16 17:01N 37°08' W 008°32'0 0.0
2017-Oct-16 16:30N 37°08' W 008°32'0 0.0
2017-Oct-16 16:00N 37°08' W 008°32'0 0.0
2017-Oct-16 15:31N 37°08' W 008°32'0 0.0
2017-Oct-16 15:01N 37°08' W 008°32'0 0.0
2017-Oct-16 14:30N 37°08' W 008°32'0 0.0
2017-Oct-16 13:30N 37°08' W 008°32'0 0.0
2017-Oct-16 13:01N 37°08' W 008°32'0 0.0
2017-Oct-16 12:31N 37°08' W 008°32'0 0.0
2017-Oct-16 12:00N 37°08' W 008°32'0 0.0
2017-Oct-16 11:31N 37°08' W 008°32'0 0.0
2017-Oct-16 11:00N 37°08' W 008°32'0 0.0
2017-Oct-16 10:31N 37°08' W 008°32'0 0.0
2017-Oct-16 10:00N 37°08' W 008°32'0 0.0
2017-Oct-16 09:30N 37°08' W 008°32'0 0.0
2017-Oct-16 09:00N 37°08' W 008°32'0 0.0
2017-Oct-16 08:30N 37°08' W 008°32'0 0.0
2017-Oct-16 08:00N 37°08' W 008°32'0 0.0
2017-Oct-16 07:30N 37°08' W 008°32'0 0.0
2017-Oct-16 07:00N 37°08' W 008°32'0 0.0
2017-Oct-16 06:30N 37°08' W 008°32'0 0.0
2017-Oct-16 06:00N 37°08' W 008°32'0 0.0
2017-Oct-16 05:31N 37°08' W 008°32'0 0.0
2017-Oct-16 05:00N 37°08' W 008°32'2 3.7
2017-Oct-16 04:31N 37°06' W 008°32'4 7.9
2017-Oct-16 04:00N 37°04' W 008°36'4 7.6
2017-Oct-16 03:29N 37°00' W 008°39'6 0.5
2017-Oct-15 15:52N 37°01' W 008°32'6 7.9
2017-Oct-15 15:07N 37°07' W 008°32'1 6.4
2017-Oct-15 15:00N 37°08' W 008°32'0 0.0
2017-Oct-15 14:00N 37°08' W 008°32'0 0.0
2017-Oct-15 13:28N 37°08' W 008°32'0 0.0
2017-Oct-15 13:00N 37°08' W 008°32'0 0.0
2017-Oct-15 12:30N 37°08' W 008°32'0 0.0
2017-Oct-15 12:00N 37°08' W 008°32'0 0.0
2017-Oct-15 11:30N 37°08' W 008°32'0 0.0
2017-Oct-15 11:00N 37°08' W 008°32'1 2.0
2017-Oct-15 10:29N 37°07' W 008°32'1 2.1
2017-Oct-15 10:00N 37°08' W 008°32'0 0.0
2017-Oct-15 09:29N 37°08' W 008°32'0 0.0
2017-Oct-15 08:59N 37°08' W 008°32'0 0.0
2017-Oct-15 08:28N 37°08' W 008°32'0 0.0
2017-Oct-15 08:00N 37°08' W 008°32'0 0.0
2017-Oct-15 07:29N 37°08' W 008°32'0 0.0
2017-Oct-15 07:00N 37°08' W 008°32'0 0.0
2017-Oct-15 06:29N 37°08' W 008°32'0 0.0
2017-Oct-15 06:00N 37°08' W 008°32'0 0.0
2017-Oct-15 05:29N 37°08' W 008°32'0 0.0
2017-Oct-15 04:59N 37°08' W 008°32'0 0.0
2017-Oct-15 04:30N 37°08' W 008°32'0 0.0
2017-Oct-15 04:00N 37°08' W 008°32'0 0.0
2017-Oct-15 03:28N 37°08' W 008°32'0 0.0
2017-Oct-15 02:56N 37°08' W 008°32'0 0.0
2017-Oct-15 02:30N 37°08' W 008°32'0 0.0
2017-Oct-15 01:59N 37°08' W 008°32'0 0.0
2017-Oct-15 01:30N 37°08' W 008°32'2 3.6
2017-Oct-15 01:00N 37°06' W 008°32'1 1.3
2017-Oct-15 00:30N 37°07' W 008°32'1 2.3
2017-Oct-15 00:00N 37°08' W 008°32'0 0.0
2017-Oct-14 23:27N 37°08' W 008°32'0 0.0
2017-Oct-14 23:00N 37°08' W 008°32'0 0.0
2017-Oct-14 22:29N 37°08' W 008°32'0 0.0
2017-Oct-14 21:59N 37°08' W 008°32'0 0.0
2017-Oct-14 21:27N 37°08' W 008°32'0 0.0
2017-Oct-14 20:54N 37°08' W 008°32'0 0.0
2017-Oct-14 20:30N 37°08' W 008°32'0 0.0
2017-Oct-14 18:59N 37°08' W 008°32'0 0.0
2017-Oct-14 18:28N 37°08' W 008°32'0 0.0
2017-Oct-14 18:01N 37°08' W 008°32'0 0.0
2017-Oct-14 17:17N 37°08' W 008°32'0 0.0
2017-Oct-14 16:52N 37°08' W 008°32'0 0.0
2017-Oct-14 16:29N 37°08' W 008°32'0 0.0
2017-Oct-14 15:49N 37°08' W 008°32'0 0.0
2017-Oct-14 15:29N 37°08' W 008°32'0 0.0
2017-Oct-14 14:47N 37°08' W 008°32'0 0.0
2017-Oct-14 14:24N 37°08' W 008°32'0 0.0
2017-Oct-14 13:59N 37°08' W 008°32'0 0.0
2017-Oct-14 12:53N 37°08' W 008°32'0 0.0
2017-Oct-14 12:28N 37°08' W 008°32'0 0.0
2017-Oct-14 11:45N 37°08' W 008°32'0 0.0
2017-Oct-14 11:18N 37°08' W 008°32'0 0.0
2017-Oct-14 10:33N 37°08' W 008°32'0 0.0
2017-Oct-14 10:31N 37°08' W 008°32'0 0.0
2017-Oct-14 09:58N 37°08' W 008°32'0 0.0
2017-Oct-14 09:13N 37°08' W 008°32'0 0.0
2017-Oct-14 08:44N 37°08' W 008°32'0 0.0
2017-Oct-14 08:24N 37°08' W 008°32'0 0.0
2017-Oct-14 08:00N 37°08' W 008°32'0 0.0
2017-Oct-14 07:29N 37°08' W 008°32'0 0.0
2017-Oct-14 06:50N 37°08' W 008°32'0 0.0
2017-Oct-14 06:30N 37°08' W 008°32'0 0.0
2017-Oct-14 06:00N 37°08' W 008°32'0 0.0
2017-Oct-14 05:18N 37°08' W 008°32'0 0.0
2017-Oct-14 04:57N 37°08' W 008°32'0 0.0
2017-Oct-14 04:27N 37°08' W 008°32'0 0.0
2017-Oct-14 03:38N 37°08' W 008°32'0 0.0
2017-Oct-14 03:31N 37°08' W 008°32'0 0.0
2017-Oct-14 02:59N 37°08' W 008°32'0 0.0
2017-Oct-14 02:30N 37°08' W 008°32'0 0.0
2017-Oct-14 01:59N 37°08' W 008°32'0 0.0
2017-Oct-14 01:26N 37°08' W 008°32'0 0.0
2017-Oct-14 01:00N 37°08' W 008°32'0 0.0
2017-Oct-14 00:30N 37°08' W 008°32'0 0.0
2017-Oct-14 00:00N 37°08' W 008°32'0 0.0
2017-Oct-13 23:30N 37°08' W 008°32'0 0.0
2017-Oct-13 22:58N 37°08' W 008°32'0 0.0
2017-Oct-13 22:29N 37°08' W 008°32'0 0.0
2017-Oct-13 22:00N 37°08' W 008°32'0 0.0
2017-Oct-13 21:30N 37°08' W 008°32'0 0.0
2017-Oct-13 21:00N 37°08' W 008°32'0 0.0
2017-Oct-13 20:30N 37°08' W 008°32'0 0.0
2017-Oct-13 20:01N 37°08' W 008°32'0 0.0
2017-Oct-13 19:31N 37°08' W 008°32'0 0.0
2017-Oct-13 19:01N 37°08' W 008°32'0 0.0
2017-Oct-13 18:30N 37°08' W 008°32'0 0.0
2017-Oct-13 18:00N 37°08' W 008°32'0 0.0
2017-Oct-13 17:30N 37°08' W 008°32'0 0.0
2017-Oct-13 17:00N 37°08' W 008°32'0 0.0
2017-Oct-13 16:30N 37°08' W 008°32'0 0.0
2017-Oct-13 15:59N 37°08' W 008°32'0 0.0
2017-Oct-13 15:30N 37°08' W 008°32'0 0.0
2017-Oct-13 14:59N 37°08' W 008°32'0 0.0
2017-Oct-13 14:30N 37°08' W 008°32'0 0.0
2017-Oct-13 14:01N 37°08' W 008°32'0 0.0
2017-Oct-13 13:30N 37°08' W 008°32'0 0.0
2017-Oct-13 13:00N 37°08' W 008°32'0 0.0
2017-Oct-13 12:30N 37°08' W 008°32'0 0.0
2017-Oct-13 12:00N 37°08' W 008°32'0 0.0
2017-Oct-13 11:31N 37°08' W 008°32'0 0.0
2017-Oct-13 11:00N 37°08' W 008°32'0 0.1
2017-Oct-13 10:30N 37°08' W 008°32'0 0.1
2017-Oct-13 10:00N 37°08' W 008°32'0 0.0
2017-Oct-13 09:30N 37°08' W 008°32'0 0.0
2017-Oct-13 09:00N 37°08' W 008°32'0 0.0
2017-Oct-13 08:30N 37°08' W 008°32'0 0.0
2017-Oct-13 08:00N 37°08' W 008°32'0 0.0
2017-Oct-13 07:30N 37°08' W 008°32'0 0.0
2017-Oct-13 07:00N 37°08' W 008°32'0 0.0
2017-Oct-13 06:30N 37°08' W 008°32'0 0.0
2017-Oct-13 06:00N 37°08' W 008°32'0 0.0
2017-Oct-13 05:30N 37°08' W 008°32'0 0.0
2017-Oct-13 04:56N 37°08' W 008°32'0 0.0
2017-Oct-13 04:29N 37°08' W 008°32'0 0.0
2017-Oct-13 03:59N 37°08' W 008°32'0 0.0
2017-Oct-13 03:25N 37°08' W 008°32'0 0.0
2017-Oct-13 02:55N 37°08' W 008°32'0 0.0
2017-Oct-13 02:17N 37°08' W 008°32'0 0.0
2017-Oct-13 01:49N 37°08' W 008°32'0 0.0
2017-Oct-13 01:30N 37°08' W 008°32'0 0.0
2017-Oct-13 01:00N 37°08' W 008°32'0 0.0
2017-Oct-13 00:27N 37°08' W 008°32'0 0.0
2017-Oct-12 23:42N 37°08' W 008°32'0 0.0
2017-Oct-12 23:27N 37°08' W 008°32'0 0.0
2017-Oct-12 22:53N 37°08' W 008°32'0 0.0
2017-Oct-12 22:27N 37°08' W 008°32'0 0.0
2017-Oct-12 22:00N 37°08' W 008°32'0 0.0
2017-Oct-12 21:30N 37°08' W 008°32'0 0.0
2017-Oct-12 21:00N 37°08' W 008°32'0 0.0
2017-Oct-12 20:31N 37°08' W 008°32'0 0.0
2017-Oct-12 20:00N 37°08' W 008°32'0 0.0
2017-Oct-12 19:30N 37°08' W 008°32'0 0.0
2017-Oct-12 19:00N 37°08' W 008°32'0 0.0
2017-Oct-12 18:30N 37°08' W 008°32'0 0.0
2017-Oct-12 18:00N 37°08' W 008°32'0 0.0
2017-Oct-12 17:30N 37°08' W 008°32'0 0.0
2017-Oct-12 17:00N 37°08' W 008°32'0 0.0
2017-Oct-12 16:30N 37°08' W 008°32'0 0.0
2017-Oct-12 16:00N 37°08' W 008°32'0 0.0
2017-Oct-12 15:29N 37°08' W 008°32'0 0.0
2017-Oct-12 15:00N 37°08' W 008°32'0 0.0
2017-Oct-12 14:30N 37°08' W 008°32'0 0.0
2017-Oct-12 14:00N 37°08' W 008°32'0 0.0
2017-Oct-12 13:30N 37°08' W 008°32'0 0.0
2017-Oct-12 13:00N 37°08' W 008°32'0 0.0
2017-Oct-12 12:30N 37°08' W 008°32'0 0.0
2017-Oct-12 12:00N 37°08' W 008°32'0 0.0
2017-Oct-12 11:28N 37°08' W 008°32'0 0.0
2017-Oct-12 11:00N 37°08' W 008°32'0 0.0
2017-Oct-12 10:30N 37°08' W 008°32'0 0.0
2017-Oct-12 09:59N 37°08' W 008°32'0 0.0
2017-Oct-12 09:30N 37°08' W 008°32'0 0.0
2017-Oct-12 09:00N 37°08' W 008°32'0 0.0
2017-Oct-12 08:30N 37°08' W 008°32'0 0.0
2017-Oct-12 08:00N 37°08' W 008°32'0 0.0
2017-Oct-12 07:30N 37°08' W 008°32'0 0.0
2017-Oct-12 06:58N 37°08' W 008°32'0 0.0
2017-Oct-12 06:30N 37°08' W 008°32'0 0.0
2017-Oct-12 06:00N 37°08' W 008°32'0 0.0
2017-Oct-12 05:29N 37°08' W 008°32'0 0.0
2017-Oct-12 05:00N 37°08' W 008°32'0 0.0
2017-Oct-12 04:30N 37°08' W 008°32'0 0.0
2017-Oct-12 03:59N 37°08' W 008°32'0 0.0
2017-Oct-12 03:30N 37°08' W 008°32'0 0.0
2017-Oct-12 03:00N 37°08' W 008°32'0 0.0
2017-Oct-12 02:31N 37°08' W 008°32'0 0.0
2017-Oct-12 02:00N 37°08' W 008°32'0 0.0
2017-Oct-12 01:30N 37°08' W 008°32'0 0.0
2017-Oct-12 00:43N 37°08' W 008°32'0 0.0
2017-Oct-12 00:29N 37°08' W 008°32'0 0.0
2017-Oct-12 00:01N 37°08' W 008°32'0 0.0
2017-Oct-11 23:29N 37°08' W 008°32'0 0.0
2017-Oct-11 22:59N 37°08' W 008°32'0 0.0
2017-Oct-11 22:30N 37°08' W 008°32'0 0.0
2017-Oct-11 21:55N 37°08' W 008°32'0 0.0
2017-Oct-11 21:30N 37°08' W 008°32'0 0.0
2017-Oct-11 20:59N 37°08' W 008°32'0 0.0
2017-Oct-11 20:30N 37°08' W 008°32'0 0.0
2017-Oct-11 19:59N 37°08' W 008°32'0 0.0
2017-Oct-11 19:30N 37°08' W 008°32'0 0.0
2017-Oct-11 19:00N 37°08' W 008°32'0 0.0
2017-Oct-11 18:24N 37°08' W 008°32'0 0.0
2017-Oct-11 17:59N 37°08' W 008°32'0 0.0
2017-Oct-11 17:18N 37°08' W 008°32'0 0.0
2017-Oct-11 16:58N 37°08' W 008°32'0 0.0
2017-Oct-11 00:00N 37°08' W 008°32'0 0.0
2017-Oct-10 23:30N 37°08' W 008°32'0 0.0
2017-Oct-10 23:00N 37°08' W 008°32'0 0.0
2017-Oct-10 22:30N 37°08' W 008°32'0 0.0
2017-Oct-10 22:00N 37°08' W 008°32'0 0.0
2017-Oct-10 21:30N 37°08' W 008°32'0 0.0
2017-Oct-10 21:00N 37°08' W 008°32'0 0.0
2017-Oct-10 20:30N 37°08' W 008°32'0 0.0
2017-Oct-10 20:00N 37°08' W 008°32'0 0.0
2017-Oct-10 19:30N 37°08' W 008°32'0 0.0
2017-Oct-10 19:00N 37°08' W 008°32'0 0.0
2017-Oct-10 18:29N 37°08' W 008°32'0 0.0
2017-Oct-10 18:00N 37°08' W 008°32'0 0.0
2017-Oct-10 17:31N 37°08' W 008°32'0 0.0
2017-Oct-10 17:00N 37°08' W 008°32'0 0.0
2017-Oct-10 16:30N 37°08' W 008°32'0 0.0
2017-Oct-10 16:00N 37°08' W 008°32'0 0.0
2017-Oct-10 15:30N 37°08' W 008°32'0 0.0
2017-Oct-10 15:00N 37°08' W 008°32'0 0.0
2017-Oct-10 14:00N 37°08' W 008°32'0 0.0
2017-Oct-10 13:30N 37°08' W 008°32'0 0.0
2017-Oct-10 13:00N 37°08' W 008°32'0 0.0
2017-Oct-10 12:30N 37°08' W 008°32'0 0.0
2017-Oct-10 12:00N 37°08' W 008°32'0 0.0
2017-Oct-10 11:28N 37°08' W 008°32'0 0.0
2017-Oct-10 11:00N 37°08' W 008°32'0 0.0
2017-Oct-10 10:30N 37°08' W 008°32'0 0.0
2017-Oct-10 10:00N 37°08' W 008°32'0 0.0
2017-Oct-10 09:30N 37°08' W 008°32'0 0.0
2017-Oct-10 09:00N 37°08' W 008°32'0 0.0
2017-Oct-10 08:30N 37°08' W 008°32'0 0.0
2017-Oct-10 08:00N 37°08' W 008°32'0 0.0
2017-Oct-10 07:30N 37°08' W 008°32'0 0.0
2017-Oct-10 07:00N 37°08' W 008°32'0 0.0
2017-Oct-10 06:30N 37°08' W 008°32'0 0.0
2017-Oct-10 06:00N 37°08' W 008°32'0 0.0
2017-Oct-10 05:29N 37°08' W 008°32'0 0.0
2017-Oct-10 04:56N 37°08' W 008°32'0 0.0
2017-Oct-10 04:30N 37°08' W 008°32'0 0.0
2017-Oct-10 04:00N 37°08' W 008°32'0 0.0
2017-Oct-10 03:27N 37°08' W 008°32'0 0.0
2017-Oct-10 03:00N 37°08' W 008°32'0 0.0
2017-Oct-10 02:30N 37°08' W 008°32'0 0.0
2017-Oct-10 02:00N 37°08' W 008°32'0 0.0
2017-Oct-10 01:29N 37°08' W 008°32'0 0.0
2017-Oct-10 01:00N 37°08' W 008°32'0 0.0
2017-Oct-10 00:30N 37°08' W 008°32'0 0.0
2017-Oct-10 00:00N 37°08' W 008°32'0 0.0
2017-Oct-09 23:30N 37°08' W 008°32'0 0.0
2017-Oct-09 23:00N 37°08' W 008°32'0 0.0
2017-Oct-09 22:30N 37°08' W 008°32'0 0.0
2017-Oct-09 21:59N 37°08' W 008°32'0 0.0
2017-Oct-09 21:30N 37°08' W 008°32'0 0.0
2017-Oct-09 21:00N 37°08' W 008°32'0 0.0
2017-Oct-09 20:30N 37°08' W 008°32'0 0.0
2017-Oct-09 20:00N 37°08' W 008°32'0 0.0
2017-Oct-09 19:30N 37°08' W 008°32'0 0.0
2017-Oct-09 19:00N 37°08' W 008°32'0 0.0
2017-Oct-09 18:30N 37°08' W 008°32'0 0.0
2017-Oct-09 18:00N 37°08' W 008°32'0 0.0
2017-Oct-09 17:30N 37°08' W 008°32'0 0.0
2017-Oct-09 17:00N 37°08' W 008°32'0 0.0
2017-Oct-09 16:30N 37°08' W 008°32'0 0.0
2017-Oct-09 16:00N 37°08' W 008°32'0 0.0
2017-Oct-09 15:30N 37°08' W 008°32'  

Dump ship's entire track history